logo
Search for airport 
image banner adimage banner adimage banner ad
image banner ad

VLFL - Phongsaly/ Boun Neua

Located in Booneua, Lao People's Democratic Republic

ICAO - , IATA - PCQ

Data provided by Airmate  

General information

Coordinates: N21°38'49" E101°53'60"
Elevation is 3055 feet MSL.
Magnetic variation is -1° East
View others Airports in Phongsali

Operational data

Special qualification required
Current time UTC:
Current local time:
Weather at : - ( 0 km )
METAR: CYEN 180206Z AUTO 02010KT 9SM -RA FEW008 OVC055 10/09 A2978 RMK PRESRR SLP098
View NOTAMs / SUP AIP / TFR affecting this airport [VIEW]
Communications frequencies: [VIEW]

Runways:

RWY identifierQFULength (ft)Width (ft)SurfaceLDA (ft)
0218°295558ASPH
20198°295558ASPH

Airport contact information

Address: Booneua Lao People's Democratic Republic

Satellite view of VLFL